createdAt,value
2023-02-05T00:01:43.283Z,2.55
2023-02-05T00:04:11.149Z,2.63
2023-02-05T00:06:39.039Z,2.83
2023-02-05T00:09:08.008Z,2.85
2023-02-05T00:11:35.626Z,3.20
2023-02-05T00:14:03.231Z,2.45
2023-02-05T00:16:30.790Z,3.33
2023-02-05T00:18:58.441Z,2.70
2023-02-05T00:21:26.063Z,3.15
2023-02-05T00:23:53.915Z,2.90
2023-02-05T00:26:22.785Z,3.00
2023-02-05T00:28:50.353Z,3.00
2023-02-05T00:31:20.147Z,2.70
2023-02-05T00:33:48.515Z,3.22
2023-02-05T00:36:16.317Z,3.50
2023-02-05T00:38:45.276Z,2.92
2023-02-05T00:41:13.886Z,2.95
2023-02-05T00:43:43.778Z,2.78
2023-02-05T00:46:12.908Z,2.72
2023-02-05T00:48:41.534Z,2.83
2023-02-05T00:51:10.344Z,2.70
2023-02-05T00:53:38.375Z,2.60
2023-02-05T00:56:06.562Z,2.33
2023-02-05T00:58:34.472Z,2.78
2023-02-05T01:01:03.788Z,2.50
2023-02-05T01:03:33.525Z,2.50
2023-02-05T01:06:03.287Z,2.40
2023-02-05T01:08:30.924Z,2.83
2023-02-05T01:10:58.705Z,2.22
2023-02-05T01:13:26.938Z,2.53
2023-02-05T01:15:55.354Z,2.40
2023-02-05T01:18:24.279Z,2.58
2023-02-05T01:20:52.625Z,2.95
2023-02-05T01:23:20.290Z,2.42
2023-02-05T01:25:48.126Z,2.60
2023-02-05T01:28:15.800Z,2.38
2023-02-05T01:30:43.495Z,2.40
2023-02-05T01:33:11.115Z,2.55
2023-02-05T01:35:40.017Z,2.30
2023-02-05T01:38:08.749Z,2.47
2023-02-05T01:40:36.337Z,2.63
2023-02-05T01:43:03.923Z,2.30
2023-02-05T01:46:07.576Z,2.80
2023-02-05T01:48:38.468Z,2.53
2023-02-05T01:51:10.205Z,2.80
2023-02-05T01:53:38.987Z,2.40
2023-02-05T01:56:11.458Z,2.40
2023-02-05T01:58:45.748Z,2.33
2023-02-05T02:01:13.370Z,2.85
2023-02-05T02:03:41.619Z,2.40
2023-02-05T02:06:11.868Z,2.38
2023-02-05T02:08:39.530Z,2.47
2023-02-05T02:11:10.044Z,2.25
2023-02-05T02:13:40.968Z,2.15
2023-02-05T02:16:09.903Z,2.90
2023-02-05T02:18:40.332Z,2.05
2023-02-05T02:21:51.386Z,2.13
2023-02-05T02:24:55.569Z,2.10
2023-02-05T02:27:39.616Z,2.40
2023-02-05T02:30:13.753Z,2.50
2023-02-05T02:32:43.928Z,2.65
2023-02-05T02:35:18.112Z,2.58
2023-02-05T02:37:51.078Z,2.47
2023-02-05T02:40:22.294Z,2.15
2023-02-05T02:42:56.444Z,2.80
2023-02-05T02:45:27.967Z,2.17
2023-02-05T02:48:00.985Z,2.50
2023-02-05T02:50:32.957Z,2.17
2023-02-05T02:53:04.730Z,2.22
2023-02-05T02:55:36.389Z,2.20
2023-02-05T02:58:08.134Z,2.50
2023-02-05T03:00:39.308Z,2.20
2023-02-05T03:03:09.907Z,2.80
2023-02-05T03:05:38.210Z,2.35
2023-02-05T03:08:14.196Z,2.33
2023-02-05T03:10:44.875Z,2.30
2023-02-05T03:13:16.888Z,2.17
2023-02-05T03:15:50.214Z,2.55
2023-02-05T03:18:20.008Z,2.88
2023-02-05T03:20:52.714Z,2.65
2023-02-05T03:23:21.241Z,2.40
2023-02-05T03:25:48.879Z,2.22
2023-02-05T03:28:22.834Z,2.42
2023-02-05T03:31:00.641Z,2.55
2023-02-05T03:33:41.080Z,2.70
2023-02-05T03:36:17.527Z,3.10
2023-02-05T03:39:10.557Z,2.55
2023-02-05T03:41:57.285Z,2.58
2023-02-05T03:44:58.216Z,2.60
2023-02-05T03:47:38.563Z,2.30
2023-02-05T03:50:13.852Z,2.17
2023-02-05T03:52:46.287Z,2.53
2023-02-05T03:55:18.586Z,2.35
2023-02-05T03:57:51.731Z,2.50
2023-02-05T04:00:21.580Z,3.63
2023-02-05T04:02:53.470Z,2.33
2023-02-05T04:05:25.424Z,2.55
2023-02-05T04:07:55.504Z,1.85
2023-02-05T04:10:27.684Z,2.72
2023-02-05T04:12:55.673Z,2.20
2023-02-05T04:15:25.562Z,2.40
2023-02-05T04:17:57.853Z,2.28
2023-02-05T04:20:26.960Z,2.40
2023-02-05T04:22:54.863Z,2.50
2023-02-05T04:25:23.809Z,2.35
2023-02-05T04:27:54.929Z,2.45
2023-02-05T04:30:22.878Z,2.38
2023-02-05T04:32:51.974Z,2.40
2023-02-05T04:35:19.835Z,2.20
2023-02-05T04:37:48.953Z,2.70
2023-02-05T04:40:17.632Z,2.65
2023-02-05T04:42:45.252Z,3.17
2023-02-05T04:45:13.224Z,2.47
2023-02-05T04:47:40.996Z,2.20
2023-02-05T04:50:10.499Z,2.40
2023-02-05T04:52:38.561Z,2.13
2023-02-05T04:55:07.521Z,1.85
2023-02-05T04:57:35.255Z,2.17
2023-02-05T05:00:03.119Z,2.28
2023-02-05T05:02:30.794Z,1.90
2023-02-05T05:04:58.568Z,1.83
2023-02-05T05:07:27.647Z,2.22
2023-02-05T05:09:55.242Z,2.20
2023-02-05T05:12:23.039Z,2.75
2023-02-05T05:14:50.959Z,3.03
2023-02-05T05:17:18.524Z,2.20
2023-02-05T05:19:46.163Z,2.10
2023-02-05T05:22:13.926Z,2.22
2023-02-05T05:24:43.255Z,2.63
2023-02-05T05:27:11.189Z,2.22
2023-02-05T05:29:39.042Z,2.20
2023-02-05T05:32:06.879Z,2.10
2023-02-05T05:34:34.658Z,2.50
2023-02-05T05:37:02.742Z,2.35
2023-02-05T05:39:48.315Z,2.78
2023-02-05T05:42:49.190Z,2.50
2023-02-05T05:45:17.276Z,2.40
2023-02-05T05:47:45.288Z,2.45
2023-02-05T05:50:12.861Z,2.53
2023-02-05T05:52:41.190Z,2.33
2023-02-05T05:55:09.257Z,2.63
2023-02-05T05:57:38.229Z,2.83
2023-02-05T06:00:06.909Z,2.15
2023-02-05T06:02:41.386Z,2.90
2023-02-05T06:05:09.427Z,3.22
2023-02-05T06:07:37.028Z,2.35
2023-02-05T06:10:05.235Z,2.58
2023-02-05T06:12:32.863Z,2.50
2023-02-05T06:15:02.084Z,2.67
2023-02-05T06:17:29.954Z,2.50
2023-02-05T06:19:57.976Z,2.47
2023-02-05T06:22:25.946Z,2.70
2023-02-05T06:24:53.990Z,2.85
2023-02-05T06:27:21.784Z,2.03
2023-02-05T06:29:49.411Z,2.78
2023-02-05T06:32:18.722Z,2.88
2023-02-05T06:34:47.080Z,2.42
2023-02-05T06:37:15.120Z,2.70
2023-02-05T06:39:42.758Z,2.58
2023-02-05T06:42:10.471Z,2.40
2023-02-05T06:44:38.116Z,2.22
2023-02-05T06:47:05.867Z,3.05
2023-02-05T06:49:34.974Z,2.75
2023-02-05T06:52:02.604Z,2.67
2023-02-05T06:54:30.477Z,3.17
2023-02-05T06:56:58.030Z,2.85
2023-02-05T06:59:25.816Z,3.15
2023-02-05T07:01:53.505Z,2.67
2023-02-05T07:04:21.120Z,3.00
2023-02-05T07:06:49.986Z,2.80
2023-02-05T07:09:17.570Z,2.80
2023-02-05T07:11:45.312Z,2.97
2023-02-05T07:14:12.972Z,3.00
2023-02-05T07:16:40.541Z,3.42
2023-02-05T07:19:08.156Z,3.05
2023-02-05T07:21:35.692Z,3.38
2023-02-05T07:24:04.970Z,2.92
2023-02-05T07:26:32.573Z,2.90
2023-02-05T07:29:00.170Z,3.38
2023-02-05T07:31:27.728Z,3.15
2023-02-05T07:33:55.584Z,3.10
2023-02-05T07:36:23.191Z,3.22
2023-02-05T07:38:50.832Z,3.03
2023-02-05T07:41:19.779Z,2.92
2023-02-05T07:43:47.457Z,3.38
2023-02-05T07:46:16.260Z,2.90
2023-02-05T07:48:44.115Z,3.40
2023-02-05T07:51:17.059Z,2.95
2023-02-05T07:53:45.121Z,3.10
2023-02-05T07:56:13.143Z,3.08
2023-02-05T07:58:42.528Z,3.40
2023-02-05T08:01:10.267Z,3.05
2023-02-05T08:03:37.915Z,3.45
2023-02-05T08:06:06.323Z,2.95
2023-02-05T08:08:34.258Z,3.20
2023-02-05T08:11:04.129Z,3.67
2023-02-05T08:13:31.915Z,3.40
2023-02-05T08:16:01.061Z,3.03
2023-02-05T08:18:28.624Z,3.03
2023-02-05T08:20:56.507Z,3.60
2023-02-05T08:23:24.118Z,3.65
2023-02-05T08:25:54.893Z,3.30
2023-02-05T08:28:23.336Z,3.70
2023-02-05T08:30:51.090Z,3.47
2023-02-05T08:33:20.545Z,3.20
2023-02-05T08:35:48.151Z,3.47
2023-02-05T08:38:15.737Z,3.50
2023-02-05T08:40:43.486Z,3.75
2023-02-05T08:43:11.394Z,3.53
2023-02-05T08:45:39.132Z,3.90
2023-02-05T08:48:06.775Z,3.75
2023-02-05T08:50:35.824Z,3.88
2023-02-05T08:53:03.393Z,3.60
2023-02-05T08:55:31.155Z,4.07
2023-02-05T08:57:58.802Z,3.35
2023-02-05T09:00:26.542Z,3.63
2023-02-05T09:02:54.143Z,3.33
2023-02-05T09:05:21.748Z,3.65
2023-02-05T09:07:50.722Z,3.35
2023-02-05T09:10:18.984Z,3.72
2023-02-05T09:12:48.138Z,3.13
2023-02-05T09:15:15.662Z,3.30
2023-02-05T09:17:43.227Z,3.50
2023-02-05T09:20:12.272Z,3.33
2023-02-05T09:22:39.920Z,2.95
2023-02-05T09:25:10.250Z,4.45
2023-02-05T09:27:37.821Z,3.30
2023-02-05T09:30:05.796Z,3.92
2023-02-05T09:32:33.442Z,4.18
2023-02-05T09:35:01.039Z,3.83
2023-02-05T09:37:28.898Z,3.53
2023-02-05T09:42:54.069Z,3.83
2023-02-05T09:45:38.285Z,4.07
2023-02-05T09:48:35.337Z,3.95
2023-02-05T09:51:04.028Z,4.38
2023-02-05T09:53:36.584Z,4.53
2023-02-05T09:56:08.688Z,3.78
2023-02-05T09:58:42.599Z,4.35
2023-02-05T10:01:17.180Z,3.88
2023-02-05T10:03:47.002Z,4.03
2023-02-05T10:06:30.895Z,3.58
2023-02-05T10:09:05.682Z,3.40
2023-02-05T10:11:41.472Z,3.10
2023-02-05T10:14:22.659Z,3.50
2023-02-05T10:17:03.158Z,3.35
2023-02-05T10:19:48.845Z,3.28
2023-02-05T10:22:25.014Z,3.72
2023-02-05T10:25:13.976Z,3.72
2023-02-05T10:27:51.003Z,3.75
2023-02-05T10:30:25.488Z,3.80
2023-02-05T10:32:57.967Z,3.92
2023-02-05T10:35:31.569Z,3.45
2023-02-05T10:37:59.684Z,4.40
2023-02-05T10:40:31.510Z,3.42
2023-02-05T10:43:03.827Z,3.58
2023-02-05T10:45:33.336Z,3.75
2023-02-05T10:48:25.591Z,3.30
2023-02-05T10:50:58.726Z,3.58
2023-02-05T10:53:28.682Z,3.65
2023-02-05T10:55:58.227Z,3.67
2023-02-05T10:58:38.807Z,3.70
2023-02-05T11:01:09.391Z,4.07
2023-02-05T11:03:37.147Z,3.90
2023-02-05T11:06:10.937Z,4.28
2023-02-05T11:08:44.140Z,3.90
2023-02-05T11:11:22.686Z,3.60
2023-02-05T11:13:54.325Z,3.80
2023-02-05T11:16:24.724Z,3.90
2023-02-05T11:19:00.720Z,4.03
2023-02-05T11:21:46.906Z,3.80
2023-02-05T11:24:26.037Z,3.80
2023-02-05T11:27:14.112Z,3.80
2023-02-05T11:29:42.041Z,3.83
2023-02-05T11:32:21.182Z,4.07
2023-02-05T11:35:06.072Z,3.72
2023-02-05T11:37:33.914Z,3.88
2023-02-05T11:40:01.597Z,3.88
2023-02-05T11:42:29.579Z,3.30
2023-02-05T11:44:59.097Z,3.75
2023-02-05T11:47:32.623Z,3.50
2023-02-05T11:50:00.962Z,4.10
2023-02-05T11:52:34.608Z,4.13
2023-02-05T11:55:02.507Z,3.28
2023-02-05T11:57:35.568Z,3.75
2023-02-05T12:00:20.467Z,3.63
2023-02-05T12:02:51.844Z,3.78
2023-02-05T12:05:22.225Z,3.53
2023-02-05T12:07:54.933Z,3.22
2023-02-05T12:10:29.504Z,3.67
2023-02-05T12:13:06.812Z,3.45
2023-02-05T12:15:39.695Z,3.92
2023-02-05T12:18:20.003Z,3.50
2023-02-05T12:21:00.040Z,3.70
2023-02-05T12:23:56.621Z,3.47
2023-02-05T12:26:30.686Z,3.88
2023-02-05T12:29:24.232Z,4.07
2023-02-05T12:32:01.983Z,3.58
2023-02-05T12:34:37.239Z,3.78
2023-02-05T12:37:21.524Z,3.83
2023-02-05T12:39:54.490Z,4.28
2023-02-05T12:42:31.406Z,4.10
2023-02-05T12:45:07.517Z,3.95
2023-02-05T12:48:02.524Z,3.95
2023-02-05T12:50:50.437Z,3.67
2023-02-05T12:53:28.572Z,4.07
2023-02-05T12:56:17.477Z,3.80
2023-02-05T12:58:48.867Z,3.75
2023-02-05T13:01:21.526Z,3.83
2023-02-05T13:03:53.676Z,3.75
2023-02-05T13:06:27.060Z,3.55
2023-02-05T13:09:02.876Z,4.18
2023-02-05T13:11:33.868Z,4.30
2023-02-05T13:14:07.367Z,3.65
2023-02-05T13:16:41.087Z,3.88
2023-02-05T13:19:23.252Z,4.07
2023-02-05T13:22:11.658Z,4.22
2023-02-05T13:25:01.826Z,3.67
2023-02-05T13:27:51.968Z,3.65
2023-02-05T13:30:24.717Z,4.03
2023-02-05T13:32:56.475Z,3.58
2023-02-05T13:35:25.654Z,3.88
2023-02-05T13:38:10.764Z,3.90
2023-02-05T13:41:26.340Z,4.30
2023-02-05T13:44:18.376Z,3.88
2023-02-05T13:47:19.344Z,3.42
2023-02-05T13:50:11.903Z,4.15
2023-02-05T13:53:03.080Z,3.90
2023-02-05T13:56:33.611Z,3.97
2023-02-05T13:59:04.438Z,3.63
2023-02-05T14:01:42.765Z,3.90
2023-02-05T14:04:20.571Z,3.45
2023-02-05T14:06:56.847Z,5.55
2023-02-05T14:09:34.176Z,5.75
2023-02-05T14:12:04.943Z,5.47
2023-02-05T14:14:35.097Z,4.63
2023-02-05T14:17:24.372Z,4.05
2023-02-05T14:19:58.186Z,4.18
2023-02-05T14:22:38.462Z,4.25
2023-02-05T14:25:48.975Z,3.90
2023-02-05T14:28:36.063Z,5.03
2023-02-05T14:31:04.559Z,4.55
2023-02-05T14:33:36.001Z,4.40
2023-02-05T14:36:33.187Z,4.30
2023-02-05T14:39:07.410Z,4.25
2023-02-05T14:41:50.746Z,4.35
2023-02-05T14:44:22.106Z,5.15
2023-02-05T14:47:00.908Z,4.22
2023-02-05T14:49:36.570Z,4.72
2023-02-05T14:52:07.845Z,6.00
2023-02-05T14:54:48.310Z,6.10
2023-02-05T14:57:22.967Z,5.30
2023-02-05T14:59:55.767Z,5.25
2023-02-05T15:02:52.576Z,4.53
2023-02-05T15:05:23.532Z,5.78
2023-02-05T15:07:53.864Z,4.85
2023-02-05T15:10:28.826Z,4.93
2023-02-05T15:13:04.242Z,4.75
2023-02-05T15:15:35.271Z,4.65
2023-02-05T15:18:12.553Z,6.90
2023-02-05T15:20:41.829Z,4.75
2023-02-05T15:23:19.533Z,5.47
2023-02-05T15:25:53.821Z,5.13
2023-02-05T15:28:33.229Z,4.60
2023-02-05T15:31:16.955Z,4.70
2023-02-05T15:33:58.817Z,5.30
2023-02-05T15:36:32.357Z,5.18
2023-02-05T15:39:09.431Z,5.05
2023-02-05T15:41:39.094Z,5.30
2023-02-05T15:44:21.348Z,6.38
2023-02-05T15:46:49.478Z,5.85
2023-02-05T15:49:17.339Z,5.57
2023-02-05T15:51:47.088Z,5.22
2023-02-05T15:54:20.445Z,5.50
2023-02-05T15:56:51.322Z,5.95
2023-02-05T15:59:24.902Z,5.70
2023-02-05T16:02:01.006Z,6.28
2023-02-05T16:04:30.666Z,6.20
2023-02-05T16:06:59.361Z,7.18
2023-02-05T16:09:28.805Z,7.25
2023-02-05T16:11:57.310Z,7.47
2023-02-05T16:14:28.590Z,7.15
2023-02-05T16:17:06.551Z,7.38
2023-02-05T16:19:37.833Z,7.10
2023-02-05T16:22:18.502Z,7.65
2023-02-05T16:24:48.902Z,8.02
2023-02-05T16:27:20.197Z,7.70
2023-02-05T16:29:51.678Z,7.68
2023-02-05T16:32:26.276Z,7.22
2023-02-05T16:34:53.964Z,7.90
2023-02-05T16:37:25.158Z,7.85
2023-02-05T16:39:55.137Z,8.10
2023-02-05T16:42:33.406Z,8.07
2023-02-05T16:45:22.341Z,8.05
2023-02-05T16:48:23.380Z,7.65
2023-02-05T16:50:51.385Z,8.63
2023-02-05T16:53:24.451Z,7.55
2023-02-05T16:55:58.190Z,8.15
2023-02-05T16:58:28.815Z,8.27
2023-02-05T17:01:00.382Z,8.98
2023-02-05T17:03:31.883Z,9.15
2023-02-05T17:06:03.443Z,9.30
2023-02-05T17:08:37.543Z,9.52
2023-02-05T17:11:07.967Z,10.43
2023-02-05T17:13:40.373Z,10.20
2023-02-05T17:16:31.421Z,9.93
2023-02-05T17:19:00.396Z,10.48
2023-02-05T17:21:30.618Z,10.85
2023-02-05T17:23:59.632Z,10.63
2023-02-05T17:26:30.784Z,11.15
2023-02-05T17:29:00.775Z,11.23
2023-02-05T17:31:30.946Z,11.40
2023-02-05T17:33:59.741Z,12.52
2023-02-05T17:36:27.699Z,11.20
2023-02-05T17:38:55.326Z,10.95
2023-02-05T17:41:43.249Z,15.00
2023-02-05T17:44:13.268Z,12.63
2023-02-05T17:46:42.193Z,11.50
2023-02-05T17:49:10.143Z,12.43
2023-02-05T17:51:41.493Z,11.82
2023-02-05T17:54:13.345Z,12.68
2023-02-05T17:56:42.045Z,12.00
2023-02-05T17:59:11.658Z,12.10
2023-02-05T18:01:42.334Z,11.70
2023-02-05T18:04:09.958Z,13.05
2023-02-05T18:06:37.980Z,12.75
2023-02-05T18:09:05.927Z,12.98
2023-02-05T18:11:33.889Z,13.85
2023-02-05T18:14:01.609Z,12.88
2023-02-05T18:16:29.301Z,13.48
2023-02-05T18:18:58.339Z,12.55
2023-02-05T18:21:26.173Z,18.08
2023-02-05T18:23:53.762Z,21.40
2023-02-05T18:26:22.300Z,16.35
2023-02-05T18:28:51.228Z,13.50
2023-02-05T18:31:19.021Z,13.40
2023-02-05T18:33:48.289Z,13.55
2023-02-05T18:36:17.246Z,14.80
2023-02-05T18:38:44.940Z,13.05
2023-02-05T18:41:14.957Z,12.38
2023-02-05T18:43:43.097Z,12.25
2023-02-05T18:46:12.997Z,12.95
2023-02-05T18:48:41.566Z,13.48
2023-02-05T18:51:11.154Z,13.32
2023-02-05T18:53:40.873Z,13.82
2023-02-05T18:56:10.466Z,13.48
2023-02-05T18:58:38.250Z,12.10
2023-02-05T19:01:10.546Z,12.95
2023-02-05T19:03:38.800Z,12.52
2023-02-05T19:06:07.462Z,12.63
2023-02-05T19:08:35.345Z,14.18
2023-02-05T19:11:08.436Z,14.30
2023-02-05T19:13:37.266Z,13.40
2023-02-05T19:16:06.821Z,14.40
2023-02-05T19:18:34.413Z,13.93
2023-02-05T19:21:06.015Z,15.15
2023-02-05T19:23:33.921Z,14.35
2023-02-05T19:26:04.206Z,14.40
2023-02-05T19:28:33.223Z,13.30
2023-02-05T19:31:03.984Z,13.05
2023-02-05T19:33:32.827Z,13.95
2023-02-05T19:36:01.703Z,14.25
2023-02-05T19:38:29.624Z,15.27
2023-02-05T19:40:57.337Z,15.05
2023-02-05T19:43:25.011Z,16.23
2023-02-05T19:45:53.956Z,14.30
2023-02-05T19:48:21.473Z,14.80
2023-02-05T19:50:49.016Z,15.13
2023-02-05T19:53:18.383Z,15.18
2023-02-05T19:55:46.120Z,15.48
2023-02-05T19:58:14.636Z,14.18
2023-02-05T20:00:42.255Z,14.35
2023-02-05T20:03:11.199Z,15.80
2023-02-05T20:05:38.761Z,14.93
2023-02-05T20:08:06.335Z,14.95
2023-02-05T20:10:34.193Z,15.50
2023-02-05T20:13:02.268Z,14.57
2023-02-05T20:15:29.880Z,15.25
2023-02-05T20:17:58.567Z,14.32
2023-02-05T20:20:33.628Z,14.45
2023-02-05T20:23:01.606Z,13.80
2023-02-05T20:25:29.374Z,14.10
2023-02-05T20:27:56.969Z,14.18
2023-02-05T20:30:42.176Z,13.70
2023-02-05T20:33:09.760Z,14.98
2023-02-05T20:35:39.153Z,13.40
2023-02-05T20:38:06.887Z,15.02
2023-02-05T20:40:34.751Z,14.70
2023-02-05T20:43:02.628Z,14.23
2023-02-05T20:45:32.314Z,16.33
2023-02-05T20:48:00.522Z,14.57
2023-02-05T20:50:28.266Z,14.68
2023-02-05T20:52:57.183Z,14.77
2023-02-05T20:55:24.813Z,14.18
2023-02-05T20:57:52.482Z,14.43
2023-02-05T21:00:22.293Z,15.05
2023-02-05T21:02:49.933Z,13.75
2023-02-05T21:05:17.626Z,14.80
2023-02-05T21:07:45.261Z,14.63
2023-02-05T21:10:14.203Z,14.45
2023-02-05T21:12:41.707Z,14.45
2023-02-05T21:15:09.848Z,14.60
2023-02-05T21:17:38.002Z,14.70
2023-02-05T21:20:06.064Z,14.80
2023-02-05T21:22:33.652Z,16.25
2023-02-05T21:25:01.201Z,15.45
2023-02-05T21:27:30.064Z,16.50
2023-02-05T21:29:57.644Z,15.68
2023-02-05T21:32:25.208Z,15.35
2023-02-05T21:34:52.717Z,15.73
2023-02-05T21:37:20.264Z,15.57
2023-02-05T21:39:48.337Z,14.90
2023-02-05T21:42:16.014Z,14.85
2023-02-05T21:44:49.132Z,13.88
2023-02-05T21:47:16.776Z,14.80
2023-02-05T21:49:44.292Z,15.45
2023-02-05T21:52:11.863Z,15.75
2023-02-05T21:54:39.428Z,15.63
2023-02-05T21:57:08.268Z,15.25
2023-02-05T21:59:36.141Z,15.07
2023-02-05T22:02:05.104Z,13.95
2023-02-05T22:04:32.656Z,14.55
2023-02-05T22:07:00.193Z,14.80
2023-02-05T22:09:27.776Z,14.73
2023-02-05T22:11:56.372Z,14.30
2023-02-05T22:14:23.959Z,14.70
2023-02-05T22:16:51.500Z,15.82
2023-02-05T22:19:20.377Z,15.93
2023-02-05T22:21:49.904Z,14.27
2023-02-05T22:24:19.815Z,14.68
2023-02-05T22:26:48.130Z,14.98
2023-02-05T22:29:17.476Z,16.75
2023-02-05T22:31:46.328Z,16.15
2023-02-05T22:34:13.956Z,15.13
2023-02-05T22:36:42.906Z,14.65
2023-02-05T22:39:10.410Z,15.13
2023-02-05T22:41:41.834Z,16.90
2023-02-05T22:44:10.998Z,15.52
2023-02-05T22:46:41.441Z,16.35
2023-02-05T22:49:09.449Z,15.02
2023-02-05T22:51:39.128Z,14.95
2023-02-05T22:54:09.024Z,15.40
2023-02-05T22:56:37.911Z,14.82
2023-02-05T22:59:06.316Z,14.35
2023-02-05T23:01:36.100Z,13.98
2023-02-05T23:04:06.419Z,12.95
2023-02-05T23:06:36.188Z,12.50
2023-02-05T23:09:06.016Z,12.10
2023-02-05T23:11:37.511Z,10.95
2023-02-05T23:14:07.243Z,12.20
2023-02-05T23:16:36.985Z,10.43
2023-02-05T23:19:07.072Z,11.10
2023-02-05T23:21:36.311Z,10.68
2023-02-05T23:24:04.837Z,10.38
2023-02-05T23:26:33.832Z,10.52
2023-02-05T23:29:03.035Z,10.18
2023-02-05T23:31:31.014Z,9.50
2023-02-05T23:33:58.780Z,10.63
2023-02-05T23:36:26.590Z,10.00
2023-02-05T23:38:54.241Z,8.57
2023-02-05T23:41:36.559Z,9.73
2023-02-05T23:44:07.929Z,8.82
2023-02-05T23:46:36.431Z,10.18
2023-02-05T23:49:04.434Z,8.95
2023-02-05T23:51:32.061Z,9.65
2023-02-05T23:53:59.929Z,8.55
2023-02-05T23:56:27.637Z,9.20
2023-02-05T23:58:56.279Z,8.98
